Time;durP1;ratioP1;P1;durP2;ratioP2;P2;SDS_P1;SDS_P2;PMS_P1;PMS_P2;Temp;Humidity;BMP_temperature;BMP_pressure;BME280_temperature;BME280_humidity;BME280_pressure;Samples;Min_cycle;Max_cycle;Signal;HPM_P1;HPM_P2
2023/09/16 00:01:03;;;;;;;22.17;19.08;;;13.50;78.90;;;;;;4992256;28;20057;-65
2023/09/16 00:03:29;;;;;;;25.98;19.73;;;13.40;78.90;;;;;;4991790;28;20124;-65
2023/09/16 00:05:56;;;;;;;25.05;20.35;;;13.40;78.90;;;;;;4991046;28;20050;-64
2023/09/16 00:08:22;;;;;;;23.15;20.55;;;13.30;79.00;;;;;;4980843;28;20129;-65
2023/09/16 00:10:48;;;;;;;22.20;18.60;;;13.30;79.00;;;;;;4991756;28;20316;-64
2023/09/16 00:13:14;;;;;;;20.63;18.42;;;13.30;79.00;;;;;;4991736;28;20173;-66
2023/09/16 00:15:39;;;;;;;24.08;20.55;;;13.20;79.00;;;;;;4991820;28;20050;-65
2023/09/16 00:18:05;;;;;;;22.92;19.80;;;13.20;79.00;;;;;;4979673;28;20437;-65
2023/09/16 00:20:31;;;;;;;23.25;20.25;;;13.10;78.90;;;;;;4991433;28;20157;-65
2023/09/16 00:22:57;;;;;;;21.88;18.77;;;13.10;79.00;;;;;;4990813;28;20378;-63
2023/09/16 00:25:23;;;;;;;22.15;19.83;;;13.10;78.90;;;;;;4991567;28;20096;-65
2023/09/16 00:27:48;;;;;;;26.00;20.58;;;13.10;78.80;;;;;;4980561;28;20046;-66
2023/09/16 00:30:14;;;;;;;23.70;21.20;;;13.00;78.80;;;;;;4989294;28;20375;-65
2023/09/16 00:32:40;;;;;;;23.83;21.08;;;13.00;78.80;;;;;;4992998;28;20580;-63
2023/09/16 00:35:08;;;;;;;24.17;21.38;;;13.00;78.80;;;;;;4991463;28;20073;-64
2023/09/16 00:37:33;;;;;;;24.55;20.27;;;12.90;78.90;;;;;;4980953;28;20041;-64
2023/09/16 00:39:59;;;;;;;27.63;21.25;;;12.90;78.90;;;;;;4991503;28;20042;-64
2023/09/16 00:42:25;;;;;;;31.67;22.52;;;12.80;78.90;;;;;;4991638;28;20105;-64
2023/09/16 00:44:50;;;;;;;27.05;22.80;;;12.80;79.00;;;;;;5003956;28;20052;-65
2023/09/16 00:47:16;;;;;;;22.75;20.30;;;12.80;78.90;;;;;;4979800;28;20050;-65
2023/09/16 00:49:42;;;;;;;25.05;22.38;;;12.70;79.00;;;;;;4990765;28;20500;-65
2023/09/16 00:52:10;;;;;;;25.67;22.15;;;12.70;79.00;;;;;;4989298;28;20744;-65
2023/09/16 00:54:36;;;;;;;27.75;21.15;;;12.70;79.10;;;;;;4991250;28;20096;-65
2023/09/16 00:57:03;;;;;;;29.50;22.33;;;12.60;79.10;;;;;;4977038;28;20133;-65
2023/09/16 00:59:32;;;;;;;25.63;22.85;;;12.60;79.20;;;;;;4989409;28;20690;-65
2023/09/16 01:01:59;;;;;;;28.30;22.58;;;12.50;79.20;;;;;;4990999;28;20048;-65
2023/09/16 01:04:25;;;;;;;27.52;23.85;;;12.50;79.30;;;;;;4989386;28;20062;-66
2023/09/16 01:06:51;;;;;;;29.58;25.67;;;12.50;79.40;;;;;;4979855;28;20047;-65
2023/09/16 01:09:20;;;;;;;29.85;23.95;;;12.50;79.50;;;;;;4990268;28;20045;-65
2023/09/16 01:11:46;;;;;;;26.92;23.98;;;12.50;79.70;;;;;;4990744;28;20058;-65
2023/09/16 01:14:12;;;;;;;28.35;23.27;;;12.50;79.60;;;;;;4990836;28;20129;-64
2023/09/16 01:17:02;;;;;;;28.65;23.27;;;12.40;79.70;;;;;;4980000;28;20047;-64
2023/09/16 01:19:56;;;;;;;24.95;20.88;;;12.40;79.70;;;;;;4990129;28;20069;-65
2023/09/16 01:22:22;;;;;;;26.33;21.27;;;12.30;79.80;;;;;;4989240;28;20374;-65
2023/09/16 01:24:52;;;;;;;29.65;23.10;;;12.30;79.70;;;;;;4991345;28;20046;-65
2023/09/16 01:27:18;;;;;;;30.13;25.35;;;12.30;79.70;;;;;;4979110;28;20108;-64
2023/09/16 01:29:44;;;;;;;27.80;24.80;;;12.30;79.80;;;;;;4989659;28;20074;-66
2023/09/16 01:32:12;;;;;;;33.22;27.90;;;12.30;80.00;;;;;;4989528;28;20050;-66
2023/09/16 01:34:51;;;;;;;34.42;28.23;;;12.30;80.10;;;;;;4981388;28;20497;-62
2023/09/16 01:37:19;;;;;;;34.92;27.35;;;12.30;80.20;;;;;;4972831;28;20451;-66
2023/09/16 01:39:57;;;;;;;31.27;27.60;;;12.30;80.30;;;;;;4989017;28;20046;-65
2023/09/16 01:42:24;;;;;;;30.65;26.63;;;12.30;80.40;;;;;;4988728;28;20058;-65
2023/09/16 01:44:53;;;;;;;32.30;26.08;;;12.30;80.50;;;;;;4988687;28;20042;-66
2023/09/16 01:47:19;;;;;;;32.45;27.63;;;12.30;80.50;;;;;;4979514;28;20074;-65
2023/09/16 01:49:45;;;;;;;34.55;28.50;;;12.20;80.70;;;;;;4989043;28;20092;-65
2023/09/16 01:52:11;;;;;;;31.55;27.30;;;12.20;80.60;;;;;;4987214;28;20046;-66
2023/09/16 01:54:37;;;;;;;31.23;27.83;;;12.20;80.70;;;;;;4987868;28;20060;-65
2023/09/16 01:57:03;;;;;;;33.60;26.83;;;12.20;80.90;;;;;;4976968;28;20117;-66
2023/09/16 01:59:28;;;;;;;33.00;27.63;;;12.20;80.70;;;;;;4988670;28;20077;-65
2023/09/16 02:01:54;;;;;;;34.85;28.13;;;12.20;80.70;;;;;;4990099;28;20081;-65
2023/09/16 02:04:20;;;;;;;37.88;30.23;;;12.10;80.90;;;;;;4987513;28;20050;-64
2023/09/16 02:06:46;;;;;;;36.42;29.88;;;12.20;81.00;;;;;;4976212;28;20331;-65
2023/09/16 02:09:16;;;;;;;38.05;30.98;;;12.20;81.10;;;;;;4970635;28;20049;-66
2023/09/16 02:11:41;;;;;;;34.38;29.10;;;12.20;81.20;;;;;;4987262;28;20359;-66
2023/09/16 02:14:12;;;;;;;31.15;27.55;;;12.20;81.10;;;;;;4987318;28;20547;-66
2023/09/16 02:16:37;;;;;;;36.75;30.52;;;12.20;81.00;;;;;;4977900;28;20558;-65
2023/09/16 02:19:03;;;;;;;34.72;28.52;;;12.20;80.90;;;;;;4988030;28;20046;-65
2023/09/16 02:21:29;;;;;;;33.47;27.73;;;12.20;81.00;;;;;;4988486;28;20562;-66
2023/09/16 02:23:55;;;;;;;32.10;28.08;;;12.10;81.00;;;;;;4988531;28;20056;-66
2023/09/16 02:26:21;;;;;;;34.70;30.55;;;12.20;81.10;;;;;;4978330;28;20072;-64
2023/09/16 02:28:46;;;;;;;31.23;27.60;;;12.10;81.10;;;;;;4988371;28;20081;-66
2023/09/16 02:31:12;;;;;;;30.13;25.33;;;12.10;81.10;;;;;;4997597;28;20065;-67
2023/09/16 02:33:38;;;;;;;35.25;29.80;;;12.10;81.10;;;;;;4999821;28;20058;-64
2023/09/16 02:36:05;;;;;;;39.03;31.38;;;12.10;81.20;;;;;;4998728;28;20603;-62
2023/09/16 02:38:30;;;;;;;29.95;26.25;;;12.20;81.30;;;;;;4996955;28;20117;-65
2023/09/16 02:40:56;;;;;;;32.63;27.90;;;12.20;81.20;;;;;;5006738;28;20487;-66
2023/09/16 02:43:22;;;;;;;34.85;28.98;;;12.20;81.10;;;;;;5020042;28;20054;-66
2023/09/16 02:45:47;;;;;;;33.22;29.10;;;12.10;81.10;;;;;;4990655;28;20097;-65
2023/09/16 02:48:17;;;;;;;38.50;32.03;;;12.10;81.20;;;;;;4980212;28;20054;-66
2023/09/16 02:50:46;;;;;;;36.20;30.33;;;12.10;81.10;;;;;;4988831;28;20133;-66
2023/09/16 02:53:12;;;;;;;42.30;32.50;;;12.10;81.20;;;;;;4996516;28;20101;-65
2023/09/16 02:55:38;;;;;;;39.97;33.47;;;12.10;81.50;;;;;;4990802;28;20042;-66
2023/09/16 02:58:04;;;;;;;40.10;32.60;;;12.20;81.60;;;;;;4976916;28;20093;-66
2023/09/16 03:00:31;;;;;;;41.65;34.05;;;12.20;81.40;;;;;;4989623;28;20388;-66
2023/09/16 03:02:57;;;;;;;39.45;32.05;;;12.10;81.40;;;;;;4992053;28;20672;-65
2023/09/16 03:05:23;;;;;;;37.92;32.72;;;12.10;81.40;;;;;;4992644;28;20098;-66
2023/09/16 03:07:49;;;;;;;40.38;31.65;;;12.10;81.40;;;;;;4976910;28;20045;-65
2023/09/16 03:10:15;;;;;;;36.85;30.67;;;12.10;81.40;;;;;;4989531;28;20049;-64
2023/09/16 03:12:40;;;;;;;39.38;31.77;;;12.10;81.50;;;;;;4987226;28;20478;-64
2023/09/16 03:15:07;;;;;;;41.83;33.78;;;12.00;81.50;;;;;;4988123;28;20383;-65
2023/09/16 03:17:32;;;;;;;36.63;32.47;;;12.00;81.70;;;;;;4976133;28;20541;-65
2023/09/16 03:19:58;;;;;;;46.35;37.63;;;12.00;81.70;;;;;;4988967;28;20133;-62
2023/09/16 03:22:24;;;;;;;38.85;30.02;;;11.90;81.90;;;;;;4989066;28;20429;-64
2023/09/16 03:24:49;;;;;;;41.20;33.15;;;11.90;81.90;;;;;;4991134;28;20362;-65
2023/09/16 03:27:15;;;;;;;37.78;31.67;;;11.90;81.80;;;;;;4981882;28;20421;-65
2023/09/16 03:29:41;;;;;;;27.42;24.38;;;11.90;81.90;;;;;;4991170;28;20560;-64
2023/09/16 03:32:07;;;;;;;24.27;20.25;;;11.90;81.80;;;;;;4989969;28;20058;-65
2023/09/16 03:34:32;;;;;;;25.50;18.05;;;11.80;81.60;;;;;;4991477;28;20077;-65
2023/09/16 03:36:59;;;;;;;16.70;14.43;;;11.70;81.50;;;;;;4981235;28;20077;-62
2023/09/16 03:39:24;;;;;;;16.88;14.77;;;11.70;81.40;;;;;;4991704;28;20062;-65
2023/09/16 03:41:50;;;;;;;16.65;14.95;;;11.60;81.20;;;;;;4990850;28;20046;-64
2023/09/16 03:44:16;;;;;;;19.30;15.10;;;11.50;81.20;;;;;;4991034;28;20137;-65
2023/09/16 03:46:42;;;;;;;18.30;16.05;;;11.50;81.20;;;;;;4980899;28;20047;-65
2023/09/16 03:49:08;;;;;;;17.67;15.02;;;11.50;81.20;;;;;;4990594;28;20093;-64
2023/09/16 03:51:36;;;;;;;17.27;14.40;;;11.40;81.20;;;;;;5005526;28;20038;-65
2023/09/16 03:54:03;;;;;;;20.50;16.45;;;11.40;81.20;;;;;;4990501;28;20141;-65
2023/09/16 03:56:29;;;;;;;18.13;16.20;;;11.40;81.40;;;;;;4979108;28;20042;-65
2023/09/16 03:58:55;;;;;;;16.65;14.85;;;11.40;81.30;;;;;;4989032;28;20050;-66
2023/09/16 04:01:21;;;;;;;19.90;17.80;;;11.30;81.20;;;;;;4990913;28;20070;-64
2023/09/16 04:03:47;;;;;;;19.20;16.38;;;11.30;81.30;;;;;;4989306;28;20132;-64
2023/09/16 04:06:13;;;;;;;22.67;19.92;;;11.30;81.20;;;;;;4979537;28;20492;-64
2023/09/16 04:08:39;;;;;;;21.92;19.13;;;11.30;81.20;;;;;;4988696;28;20445;-65
2023/09/16 04:11:06;;;;;;;19.00;17.00;;;11.30;81.20;;;;;;4990723;28;20133;-63
2023/09/16 04:13:31;;;;;;;19.20;17.23;;;11.20;81.20;;;;;;4989280;28;20091;-65
2023/09/16 04:15:57;;;;;;;20.67;18.65;;;11.20;81.20;;;;;;4990734;28;20484;-65
2023/09/16 04:18:23;;;;;;;22.73;19.33;;;11.20;81.20;;;;;;4982129;28;20052;-65
2023/09/16 04:20:50;;;;;;;19.90;17.80;;;11.10;81.10;;;;;;4992477;28;20085;-65
2023/09/16 04:23:16;;;;;;;24.50;21.20;;;11.10;81.10;;;;;;4988769;28;20061;-65
2023/09/16 04:25:42;;;;;;;26.70;23.80;;;11.10;81.10;;;;;;4988679;28;20053;-64
2023/09/16 04:28:09;;;;;;;22.17;19.80;;;11.10;81.20;;;;;;4978358;28;20057;-66
2023/09/16 04:30:45;;;;;;;23.42;20.92;;;11.10;81.20;;;;;;5000450;28;20048;-65
2023/09/16 04:33:11;;;;;;;24.60;21.95;;;11.10;81.20;;;;;;5002896;28;20042;-65
2023/09/16 04:35:43;;;;;;;25.98;21.65;;;11.10;81.20;;;;;;5006736;28;20137;-65
2023/09/16 04:38:10;;;;;;;25.80;22.00;;;11.10;81.20;;;;;;4993364;28;20042;-65
2023/09/16 04:40:35;;;;;;;24.42;21.75;;;11.10;81.40;;;;;;5005348;28;20042;-65
2023/09/16 04:43:03;;;;;;;25.85;21.33;;;11.10;81.30;;;;;;5014893;28;20057;-66
2023/09/16 04:45:29;;;;;;;25.75;23.02;;;11.10;81.30;;;;;;4989306;28;20054;-64
2023/09/16 04:47:56;;;;;;;24.00;21.23;;;11.10;81.30;;;;;;4979166;28;20197;-65
2023/09/16 04:50:22;;;;;;;26.35;23.60;;;11.10;81.40;;;;;;4992765;28;20042;-65
2023/09/16 04:52:48;;;;;;;23.40;20.88;;;11.00;81.40;;;;;;4992630;28;20424;-65
2023/09/16 04:55:14;;;;;;;20.75;18.65;;;11.10;81.40;;;;;;4995377;28;20124;-65
2023/09/16 04:57:40;;;;;;;24.10;21.52;;;11.00;81.50;;;;;;4980516;28;20030;-65
2023/09/16 05:00:07;;;;;;;23.40;20.95;;;11.00;81.40;;;;;;4992963;28;20073;-64
2023/09/16 05:02:33;;;;;;;20.10;18.10;;;11.00;81.50;;;;;;4988616;28;20096;-65
2023/09/16 05:05:00;;;;;;;20.55;18.40;;;11.00;81.50;;;;;;4989399;28;20054;-64
2023/09/16 05:07:27;;;;;;;22.88;20.58;;;11.00;81.60;;;;;;4976474;28;20054;-65
2023/09/16 05:09:53;;;;;;;26.85;24.00;;;11.00;81.70;;;;;;4986810;28;20525;-64
2023/09/16 05:12:19;;;;;;;22.98;20.55;;;11.00;81.60;;;;;;4984552;28;20077;-65
2023/09/16 05:14:46;;;;;;;21.58;18.45;;;11.00;81.60;;;;;;5005087;28;20112;-65
2023/09/16 05:17:12;;;;;;;21.67;18.80;;;11.00;81.60;;;;;;4973892;28;20050;-66
2023/09/16 05:19:37;;;;;;;23.35;18.88;;;10.90;81.60;;;;;;4990920;28;20038;-65
2023/09/16 05:22:04;;;;;;;23.48;19.92;;;10.90;81.50;;;;;;4986779;28;20104;-64
2023/09/16 05:24:32;;;;;;;22.42;19.77;;;10.80;81.50;;;;;;4989576;28;20057;-64
2023/09/16 05:26:59;;;;;;;21.35;19.02;;;10.80;81.50;;;;;;4978078;28;20042;-62
2023/09/16 05:29:25;;;;;;;24.55;19.27;;;10.80;81.60;;;;;;4988256;28;20081;-65
2023/09/16 05:31:51;;;;;;;19.70;17.70;;;10.80;81.60;;;;;;4991656;28;20054;-65
2023/09/16 05:34:17;;;;;;;23.35;18.25;;;10.80;81.60;;;;;;4987887;28;20516;-66
2023/09/16 05:36:43;;;;;;;23.10;20.60;;;10.80;81.60;;;;;;4978616;28;20050;-65
2023/09/16 05:39:08;;;;;;;19.67;17.60;;;10.80;81.70;;;;;;4988823;28;20132;-65
2023/09/16 05:41:35;;;;;;;21.23;18.98;;;10.80;81.70;;;;;;4971602;28;20065;-64
2023/09/16 05:44:01;;;;;;;19.80;17.27;;;10.90;81.70;;;;;;4987250;28;20158;-64
2023/09/16 05:46:28;;;;;;;22.73;19.02;;;10.90;81.80;;;;;;4978425;28;20042;-64
2023/09/16 05:49:06;;;;;;;22.10;19.70;;;11.00;81.70;;;;;;4987390;28;20038;-64
2023/09/16 05:51:35;;;;;;;23.67;20.35;;;11.00;81.70;;;;;;4986455;28;20485;-64
2023/09/16 05:54:01;;;;;;;20.25;18.08;;;11.00;81.70;;;;;;4988494;28;20046;-64
2023/09/16 05:56:27;;;;;;;25.17;22.35;;;11.10;81.80;;;;;;4977653;28;20277;-64
2023/09/16 05:58:53;;;;;;;27.98;23.38;;;11.10;82.10;;;;;;4986142;28;20104;-64
2023/09/16 06:01:18;;;;;;;28.25;23.35;;;11.20;82.30;;;;;;4988199;28;20050;-63
2023/09/16 06:03:44;;;;;;;27.83;24.88;;;11.40;82.40;;;;;;4986941;28;20088;-65
2023/09/16 06:06:11;;;;;;;29.45;26.30;;;11.50;82.50;;;;;;4978657;28;20154;-65
2023/09/16 06:08:37;;;;;;;29.20;25.52;;;11.50;82.60;;;;;;4985103;28;20054;-64
2023/09/16 06:11:03;;;;;;;29.13;25.92;;;11.70;83.00;;;;;;4988796;28;20397;-64
2023/09/16 06:13:29;;;;;;;34.95;29.38;;;11.80;82.90;;;;;;4987595;28;20406;-64
2023/09/16 06:15:55;;;;;;;33.72;29.02;;;11.90;82.70;;;;;;4988836;28;20038;-64
2023/09/16 06:18:20;;;;;;;31.00;27.63;;;12.00;82.70;;;;;;4976381;28;20381;-65
2023/09/16 06:20:47;;;;;;;35.80;29.35;;;12.10;82.70;;;;;;4987836;28;20490;-65
2023/09/16 06:23:14;;;;;;;42.85;35.10;;;12.10;82.70;;;;;;4990067;28;20042;-65
2023/09/16 06:25:40;;;;;;;39.33;33.88;;;12.20;82.80;;;;;;4988420;28;20042;-65
2023/09/16 06:28:06;;;;;;;37.88;33.40;;;12.30;82.90;;;;;;4980220;28;20045;-64
2023/09/16 06:30:31;;;;;;;40.30;33.72;;;12.50;82.90;;;;;;4995717;28;20146;-65
2023/09/16 06:32:57;;;;;;;43.33;38.20;;;12.50;82.90;;;;;;4999183;28;20064;-65
2023/09/16 06:35:23;;;;;;;48.67;39.17;;;12.60;82.80;;;;;;5003983;28;20051;-65
2023/09/16 06:37:52;;;;;;;51.90;40.20;;;12.70;82.80;;;;;;4995607;28;20050;-65
2023/09/16 06:40:17;;;;;;;45.35;38.03;;;12.70;82.80;;;;;;5001455;28;20061;-66
2023/09/16 06:42:44;;;;;;;43.38;34.92;;;12.80;82.90;;;;;;4989942;28;20050;-65
2023/09/16 06:45:10;;;;;;;41.28;36.28;;;12.80;82.90;;;;;;4992103;28;20385;-65
2023/09/16 06:47:35;;;;;;;42.05;34.15;;;12.90;82.90;;;;;;4978694;28;20066;-65
2023/09/16 06:50:01;;;;;;;38.97;33.33;;;13.00;82.80;;;;;;4987776;28;20093;-67
2023/09/16 06:52:28;;;;;;;39.72;33.08;;;13.10;82.80;;;;;;4991828;28;20059;-66
2023/09/16 06:54:54;;;;;;;42.03;35.30;;;13.10;82.80;;;;;;5005451;28;20100;-67
2023/09/16 06:57:20;;;;;;;38.55;33.25;;;13.20;82.90;;;;;;4985194;28;20046;-63
2023/09/16 06:59:47;;;;;;;40.70;32.95;;;13.30;82.80;;;;;;4991253;28;20047;-66
2023/09/16 07:02:13;;;;;;;38.05;33.22;;;13.30;82.80;;;;;;4990510;28;20050;-66
2023/09/16 07:04:40;;;;;;;39.30;33.08;;;13.40;83.00;;;;;;4989904;28;20074;-64
2023/09/16 07:07:07;;;;;;;36.50;32.22;;;13.50;82.80;;;;;;4980382;28;20097;-66
2023/09/16 07:09:33;;;;;;;36.78;29.08;;;13.50;82.70;;;;;;4989715;28;20058;-65
2023/09/16 07:11:59;;;;;;;36.65;31.17;;;13.60;82.80;;;;;;4990812;28;20045;-65
2023/09/16 07:14:24;;;;;;;34.38;29.85;;;13.60;82.90;;;;;;4971266;28;20050;-66
2023/09/16 07:16:51;;;;;;;37.83;29.63;;;13.70;82.90;;;;;;4979929;28;20030;-66
2023/09/16 07:19:17;;;;;;;34.95;30.70;;;13.80;82.90;;;;;;4984739;28;20085;-65
2023/09/16 07:21:42;;;;;;;36.25;30.52;;;13.90;82.80;;;;;;4986320;28;20081;-65
2023/09/16 07:24:08;;;;;;;35.25;28.38;;;13.90;82.80;;;;;;4985988;28;20561;-66
2023/09/16 07:26:34;;;;;;;33.53;29.05;;;14.00;82.80;;;;;;4980238;28;20042;-66
2023/09/16 07:29:00;;;;;;;29.30;26.13;;;14.00;82.80;;;;;;4989548;28;20574;-65
2023/09/16 07:31:25;;;;;;;31.55;28.20;;;14.10;82.80;;;;;;4990617;28;20043;-65
2023/09/16 07:33:51;;;;;;;32.55;27.13;;;14.20;82.90;;;;;;4984683;28;20038;-65
2023/09/16 07:36:17;;;;;;;32.05;27.50;;;14.20;82.80;;;;;;4974456;28;20078;-66
2023/09/16 07:38:43;;;;;;;31.15;27.85;;;14.30;82.80;;;;;;4984561;28;20082;-65
2023/09/16 07:41:09;;;;;;;31.70;27.52;;;14.40;82.80;;;;;;4988238;28;20417;-63
2023/09/16 07:43:35;;;;;;;29.67;25.92;;;14.50;82.80;;;;;;4987873;28;20306;-65
2023/09/16 07:46:00;;;;;;;34.13;27.80;;;14.50;82.80;;;;;;4987710;28;20379;-66
2023/09/16 07:48:26;;;;;;;33.78;28.27;;;14.70;82.90;;;;;;4978887;28;20050;-64
2023/09/16 07:50:54;;;;;;;32.15;27.70;;;14.80;83.00;;;;;;4988053;28;20086;-64
2023/09/16 07:53:20;;;;;;;31.98;26.33;;;14.90;83.10;;;;;;4987538;28;20050;-67
2023/09/16 07:55:46;;;;;;;29.80;25.63;;;15.00;82.90;;;;;;4971172;28;20462;-65
2023/09/16 07:58:12;;;;;;;28.55;23.83;;;15.00;82.60;;;;;;4977571;28;20065;-66
2023/09/16 08:00:37;;;;;;;28.50;24.55;;;15.10;82.60;;;;;;4987530;28;20042;-65
2023/09/16 08:03:03;;;;;;;26.90;23.30;;;15.20;82.50;;;;;;4987432;28;20560;-66
2023/09/16 08:05:29;;;;;;;27.60;23.88;;;15.30;82.40;;;;;;4968529;28;20057;-63
2023/09/16 08:07:55;;;;;;;25.75;23.10;;;15.30;82.40;;;;;;4975671;28;20112;-66
2023/09/16 08:10:20;;;;;;;25.92;22.38;;;15.40;82.30;;;;;;4986438;28;20057;-65
2023/09/16 08:12:46;;;;;;;25.90;22.77;;;15.50;82.30;;;;;;4964167;28;20117;-65
2023/09/16 08:15:12;;;;;;;23.90;21.48;;;15.50;82.30;;;;;;4965777;28;20042;-65
2023/09/16 08:17:38;;;;;;;26.30;22.02;;;15.60;82.20;;;;;;4975067;28;20069;-65
2023/09/16 08:20:08;;;;;;;24.98;22.27;;;15.60;82.00;;;;;;4965437;28;20496;-65
2023/09/16 08:22:33;;;;;;;24.48;21.63;;;15.70;81.90;;;;;;4985122;28;20134;-63
2023/09/16 08:35:25;;;;;;;27.90;22.33;;;16.20;81.70;;;;;;5141234;27;1286519;-82
2023/09/16 08:37:51;;;;;;;25.80;23.10;;;16.10;81.20;;;;;;5143756;27;20050;-82
2023/09/16 08:40:17;;;;;;;28.15;22.63;;;16.20;81.00;;;;;;5155974;27;20035;-82
2023/09/16 08:43:05;;;;;;;27.13;22.50;;;16.30;80.90;;;;;;5137748;27;20034;-83
2023/09/16 08:45:34;;;;;;;24.17;21.23;;;16.40;81.00;;;;;;5139431;27;20085;-83
2023/09/16 08:48:03;;;;;;;25.00;20.77;;;16.50;81.00;;;;;;5134983;27;20039;-83
2023/09/16 08:50:31;;;;;;;23.13;19.73;;;16.60;81.00;;;;;;5118428;27;20043;-82
2023/09/16 08:53:02;;;;;;;23.90;20.17;;;16.60;81.00;;;;;;5134961;27;20477;-81
2023/09/16 08:55:29;;;;;;;23.20;20.23;;;16.80;80.90;;;;;;5116363;27;20381;-83
2023/09/16 08:58:10;;;;;;;22.63;20.25;;;16.90;80.80;;;;;;5113681;27;20039;-82
2023/09/16 09:00:37;;;;;;;24.35;19.92;;;17.00;80.80;;;;;;5111618;27;20047;-81
2023/09/16 09:03:03;;;;;;;20.65;18.17;;;17.10;80.70;;;;;;5092638;28;20043;-82
2023/09/16 09:05:31;;;;;;;19.52;17.33;;;17.30;80.50;;;;;;5115811;28;20184;-83
2023/09/16 09:07:58;;;;;;;19.73;17.63;;;17.40;80.20;;;;;;5108088;28;20044;-82
2023/09/16 09:10:24;;;;;;;22.73;18.13;;;17.50;79.90;;;;;;5118315;28;20067;-82
2023/09/16 09:12:50;;;;;;;18.30;16.02;;;17.50;79.70;;;;;;5114227;27;20063;-83
2023/09/16 09:15:16;;;;;;;17.90;15.20;;;17.60;79.60;;;;;;5119656;28;20437;-82
2023/09/16 09:17:56;;;;;;;15.45;12.65;;;17.80;79.20;;;;;;5108158;27;20055;-84
2023/09/16 09:20:27;;;;;;;18.73;12.75;;;17.80;78.50;;;;;;5115841;27;20039;-82
2023/09/16 09:22:54;;;;;;;14.40;12.35;;;18.00;78.20;;;;;;5128666;27;20043;-82
2023/09/16 09:25:25;;;;;;;14.95;11.93;;;18.00;77.90;;;;;;5109806;28;20036;-82
2023/09/16 09:27:52;;;;;;;15.75;11.45;;;18.10;77.70;;;;;;5113481;28;20044;-82
2023/09/16 09:30:24;;;;;;;16.38;11.90;;;18.10;77.30;;;;;;5110155;28;20107;-82
2023/09/16 09:32:50;;;;;;;15.27;10.57;;;18.20;77.10;;;;;;5123564;28;20078;-82
2023/09/16 09:35:16;;;;;;;13.43;9.98;;;18.30;76.80;;;;;;5097009;28;20079;-82
2023/09/16 09:37:42;;;;;;;13.68;9.68;;;18.40;76.00;;;;;;5074602;28;20046;-82
2023/09/16 09:40:13;;;;;;;14.18;9.65;;;18.50;75.80;;;;;;5075863;28;20040;-81
2023/09/16 09:42:40;;;;;;;11.05;9.38;;;18.60;75.30;;;;;;5086296;28;20047;-83
2023/09/16 09:45:06;;;;;;;12.68;10.15;;;18.70;75.10;;;;;;5094748;28;20070;-85
2023/09/16 09:47:34;;;;;;;13.57;10.40;;;18.70;74.90;;;;;;5088568;28;20120;-82
2023/09/16 09:50:01;;;;;;;12.68;9.38;;;18.90;74.70;;;;;;5087449;28;20040;-82
2023/09/16 09:52:26;;;;;;;11.77;9.38;;;19.00;74.10;;;;;;5076267;28;20045;-82
2023/09/16 09:54:53;;;;;;;13.50;9.05;;;19.00;73.80;;;;;;5083361;28;20047;-83
2023/09/16 09:57:19;;;;;;;12.82;9.00;;;19.10;73.20;;;;;;5071305;28;20162;-84
2023/09/16 09:59:46;;;;;;;10.82;8.55;;;19.20;72.80;;;;;;5071101;28;20550;-83
2023/09/16 10:02:11;;;;;;;12.43;9.13;;;19.30;71.90;;;;;;5076742;28;20050;-83
2023/09/16 10:04:37;;;;;;;11.60;8.50;;;19.40;71.60;;;;;;5074402;28;20044;-83
2023/09/16 10:07:04;;;;;;;12.10;9.02;;;19.50;71.70;;;;;;5081530;28;20144;-82
2023/09/16 10:09:30;;;;;;;11.88;9.10;;;19.50;71.60;;;;;;5064176;28;20425;-83
2023/09/16 10:11:56;;;;;;;10.70;8.73;;;19.50;71.40;;;;;;5082940;28;20094;-82
2023/09/16 10:14:24;;;;;;;9.02;8.00;;;19.50;71.10;;;;;;5082522;28;20044;-78
2023/09/16 10:16:50;;;;;;;17.85;8.52;;;19.70;70.70;;;;;;5085113;28;20044;-79
2023/09/16 10:19:15;;;;;;;8.43;6.78;;;19.70;70.70;;;;;;5075693;28;20039;-81
2023/09/16 10:21:41;;;;;;;11.15;7.28;;;19.70;70.30;;;;;;5076749;28;20043;-80
2023/09/16 10:24:08;;;;;;;9.63;7.07;;;19.80;70.40;;;;;;5089619;28;20044;-80
2023/09/16 10:26:34;;;;;;;8.40;6.85;;;19.90;70.10;;;;;;5094088;28;20040;-80
2023/09/16 10:29:02;;;;;;;11.32;6.93;;;19.80;69.80;;;;;;5089206;28;20498;-79
2023/09/16 10:31:30;;;;;;;10.82;7.47;;;19.90;69.30;;;;;;5093537;28;20544;-80
2023/09/16 10:33:57;;;;;;;12.07;7.65;;;19.90;69.10;;;;;;5072180;28;20048;-80
2023/09/16 10:36:25;;;;;;;14.38;8.10;;;20.00;69.20;;;;;;5099157;28;20505;-80
2023/09/16 10:38:54;;;;;;;9.40;7.13;;;20.00;69.20;;;;;;5109792;28;20035;-79
2023/09/16 10:41:21;;;;;;;9.70;7.25;;;20.10;69.10;;;;;;5072361;28;20040;-80
2023/09/16 10:43:47;;;;;;;9.52;7.25;;;20.30;68.90;;;;;;5104409;28;20040;-80
2023/09/16 10:46:13;;;;;;;10.30;7.72;;;20.30;68.40;;;;;;5085226;28;20521;-80
2023/09/16 10:48:39;;;;;;;14.45;8.25;;;20.40;68.40;;;;;;5111555;28;20127;-79
2023/09/16 10:51:11;;;;;;;10.38;6.85;;;20.40;68.30;;;;;;5099209;28;20114;-80
2023/09/16 10:53:39;;;;;;;8.15;6.13;;;20.40;68.00;;;;;;5092419;28;20538;-81
2023/09/16 10:56:05;;;;;;;8.63;7.43;;;20.50;68.00;;;;;;5090341;28;20048;-80
2023/09/16 10:58:41;;;;;;;12.00;6.15;;;20.50;68.00;;;;;;5064464;28;20740;-81
2023/09/16 11:01:08;;;;;;;9.20;7.00;;;20.50;67.60;;;;;;5072719;28;20055;-80
2023/09/16 11:03:40;;;;;;;10.15;7.15;;;20.50;67.50;;;;;;5075230;28;20118;-80
2023/09/16 11:06:06;;;;;;;9.35;5.80;;;20.60;67.50;;;;;;5064487;28;20382;-81
2023/09/16 11:08:32;;;;;;;7.82;5.25;;;20.60;67.70;;;;;;5073627;28;20045;-80
2023/09/16 11:10:58;;;;;;;7.57;5.15;;;20.70;67.30;;;;;;5072778;28;20386;-82
2023/09/16 11:13:29;;;;;;;6.90;5.00;;;20.70;66.60;;;;;;5053877;28;20072;-83
2023/09/16 11:15:59;;;;;;;8.48;5.65;;;20.80;66.20;;;;;;5072203;28;20048;-80
2023/09/16 11:18:25;;;;;;;10.48;5.93;;;20.80;66.50;;;;;;5063803;28;20043;-80
2023/09/16 11:20:51;;;;;;;9.38;5.10;;;20.80;66.50;;;;;;5068919;28;20479;-83
2023/09/16 11:23:17;;;;;;;6.75;4.97;;;20.90;66.50;;;;;;5064386;28;20231;-80
2023/09/16 11:25:43;;;;;;;6.47;4.10;;;21.00;66.80;;;;;;5069579;28;20040;-81
2023/09/16 11:28:11;;;;;;;7.78;4.75;;;21.00;66.40;;;;;;5066167;28;20154;-80
2023/09/16 11:30:37;;;;;;;6.57;4.32;;;21.10;65.90;;;;;;5072545;28;20068;-81
2023/09/16 11:33:04;;;;;;;4.93;3.60;;;21.10;65.60;;;;;;5078679;28;20129;-81
2023/09/16 11:35:31;;;;;;;6.22;2.92;;;21.10;65.40;;;;;;5109141;28;20062;-82
2023/09/16 11:37:58;;;;;;;6.20;3.70;;;21.10;63.60;;;;;;5096914;28;20048;-81
2023/09/16 11:40:34;;;;;;;5.03;3.25;;;21.10;63.50;;;;;;5097843;28;20044;-81
2023/09/16 11:43:00;;;;;;;5.10;3.58;;;21.10;63.30;;;;;;5078262;28;20089;-80
2023/09/16 11:45:28;;;;;;;7.15;3.92;;;21.10;63.80;;;;;;5079331;28;20066;-82
2023/09/16 11:47:54;;;;;;;5.32;4.35;;;21.10;63.60;;;;;;5072459;28;20050;-81
2023/09/16 11:50:25;;;;;;;8.07;4.38;;;21.10;64.00;;;;;;5075861;28;20434;-80
2023/09/16 11:52:51;;;;;;;4.93;3.53;;;21.30;64.20;;;;;;5074174;28;20044;-80
2023/09/16 11:55:17;;;;;;;6.75;4.03;;;21.30;64.50;;;;;;5075307;28;20528;-80
2023/09/16 11:57:45;;;;;;;7.07;4.57;;;21.30;64.40;;;;;;5073911;28;20136;-80
2023/09/16 12:00:11;;;;;;;7.15;3.90;;;21.40;63.50;;;;;;5075935;28;20040;-80
2023/09/16 12:02:37;;;;;;;5.82;3.90;;;21.40;63.30;;;;;;5073571;28;20089;-81
2023/09/16 12:05:05;;;;;;;5.45;4.05;;;21.50;62.90;;;;;;5075224;28;20040;-81
2023/09/16 12:07:31;;;;;;;7.22;3.60;;;21.50;62.60;;;;;;5057415;28;20040;-81
2023/09/16 12:10:01;;;;;;;4.47;3.00;;;21.60;62.80;;;;;;5057587;28;20209;-80
2023/09/16 12:12:27;;;;;;;5.38;3.13;;;21.70;62.60;;;;;;5074944;28;20127;-80
2023/09/16 12:14:54;;;;;;;4.70;3.17;;;21.70;62.40;;;;;;5075181;28;20044;-82
2023/09/16 12:17:19;;;;;;;4.30;3.47;;;21.70;62.60;;;;;;5074341;28;20040;-79
2023/09/16 12:19:49;;;;;;;4.78;3.30;;;21.60;62.50;;;;;;5075917;28;20048;-80
2023/09/16 12:22:16;;;;;;;5.80;3.38;;;21.50;63.00;;;;;;5073323;28;20374;-80
2023/09/16 12:24:42;;;;;;;5.80;3.17;;;21.50;63.00;;;;;;5076113;28;20054;-80
2023/09/16 12:27:08;;;;;;;4.95;3.00;;;21.70;62.60;;;;;;5075314;28;20040;-80
2023/09/16 12:29:33;;;;;;;3.72;2.70;;;21.70;62.70;;;;;;5076217;28;20542;-80
2023/09/16 12:32:15;;;;;;;6.40;3.35;;;21.80;62.30;;;;;;5074338;28;20051;-78
2023/09/16 12:34:40;;;;;;;;;;;21.90;61.60;;;;;;5104409;28;20060;-79
2023/09/16 12:37:07;;;;;;;5.65;2.97;;;21.90;62.20;;;;;;5116038;28;19916;-80
2023/09/16 12:39:36;;;;;;;5.85;3.03;;;22.00;61.80;;;;;;5115831;28;20054;-81